sensor_id;sensor_type;location;lat;lon;timestamp;temperature;humidity
11609;DHT22;5860;52.018;8.536;2023-07-16T00:00:27;20.00;99.90
11609;DHT22;5860;52.018;8.536;2023-07-16T00:02:54;20.00;99.90
11609;DHT22;5860;52.018;8.536;2023-07-16T00:05:22;20.00;99.90
11609;DHT22;5860;52.018;8.536;2023-07-16T00:07:49;20.00;99.90
11609;DHT22;5860;52.018;8.536;2023-07-16T00:10:16;19.90;99.90
11609;DHT22;5860;52.018;8.536;2023-07-16T00:12:43;19.90;99.90
11609;DHT22;5860;52.018;8.536;2023-07-16T00:15:10;19.90;99.90
11609;DHT22;5860;52.018;8.536;2023-07-16T00:17:37;19.80;99.90
11609;DHT22;5860;52.018;8.536;2023-07-16T00:20:04;19.80;99.90
11609;DHT22;5860;52.018;8.536;2023-07-16T00:22:32;19.80;99.90
11609;DHT22;5860;52.018;8.536;2023-07-16T00:25:00;19.80;99.90
11609;DHT22;5860;52.018;8.536;2023-07-16T00:27:26;19.80;99.90
11609;DHT22;5860;52.018;8.536;2023-07-16T00:29:53;19.80;99.90
11609;DHT22;5860;52.018;8.536;2023-07-16T00:32:20;19.80;99.90
11609;DHT22;5860;52.018;8.536;2023-07-16T00:34:47;19.80;99.90
11609;DHT22;5860;52.018;8.536;2023-07-16T00:37:14;19.80;99.90
11609;DHT22;5860;52.018;8.536;2023-07-16T00:39:41;19.80;99.90
11609;DHT22;5860;52.018;8.536;2023-07-16T00:42:07;19.70;99.90
11609;DHT22;5860;52.018;8.536;2023-07-16T00:44:35;19.70;99.90
11609;DHT22;5860;52.018;8.536;2023-07-16T00:47:02;19.70;99.90
11609;DHT22;5860;52.018;8.536;2023-07-16T00:49:29;19.60;99.90
11609;DHT22;5860;52.018;8.536;2023-07-16T00:51:56;19.60;99.90
11609;DHT22;5860;52.018;8.536;2023-07-16T00:54:24;19.60;99.90
11609;DHT22;5860;52.018;8.536;2023-07-16T00:56:52;19.60;99.90
11609;DHT22;5860;52.018;8.536;2023-07-16T00:59:19;19.60;99.90
11609;DHT22;5860;52.018;8.536;2023-07-16T01:01:46;19.60;99.90
11609;DHT22;5860;52.018;8.536;2023-07-16T01:04:12;19.60;99.90
11609;DHT22;5860;52.018;8.536;2023-07-16T01:06:41;19.60;99.90
11609;DHT22;5860;52.018;8.536;2023-07-16T01:09:16;19.60;99.90
11609;DHT22;5860;52.018;8.536;2023-07-16T01:11:44;19.60;99.90
11609;DHT22;5860;52.018;8.536;2023-07-16T01:14:17;19.50;99.90
11609;DHT22;5860;52.018;8.536;2023-07-16T01:16:45;19.50;99.90
11609;DHT22;5860;52.018;8.536;2023-07-16T01:19:12;19.50;99.90
11609;DHT22;5860;52.018;8.536;2023-07-16T01:21:48;19.50;99.90
11609;DHT22;5860;52.018;8.536;2023-07-16T01:30:19;19.60;99.90
11609;DHT22;5860;52.018;8.536;2023-07-16T01:32:47;19.50;99.90
11609;DHT22;5860;52.018;8.536;2023-07-16T01:35:15;19.50;99.90
11609;DHT22;5860;52.018;8.536;2023-07-16T01:37:42;19.50;99.90
11609;DHT22;5860;52.018;8.536;2023-07-16T01:40:09;19.50;99.90
11609;DHT22;5860;52.018;8.536;2023-07-16T01:42:39;19.50;99.90
11609;DHT22;5860;52.018;8.536;2023-07-16T01:45:12;19.50;99.90
11609;DHT22;5860;52.018;8.536;2023-07-16T01:48:07;19.50;99.90
11609;DHT22;5860;52.018;8.536;2023-07-16T01:50:36;19.40;99.90
11609;DHT22;5860;52.018;8.536;2023-07-16T01:53:03;19.40;99.90
11609;DHT22;5860;52.018;8.536;2023-07-16T01:55:30;19.40;99.90
11609;DHT22;5860;52.018;8.536;2023-07-16T01:57:57;19.30;99.90
11609;DHT22;5860;52.018;8.536;2023-07-16T02:00:24;19.30;99.90
11609;DHT22;5860;52.018;8.536;2023-07-16T02:02:51;19.20;99.90
11609;DHT22;5860;52.018;8.536;2023-07-16T02:05:18;19.20;99.90
11609;DHT22;5860;52.018;8.536;2023-07-16T02:07:45;19.20;99.90
11609;DHT22;5860;52.018;8.536;2023-07-16T02:10:11;19.10;99.90
11609;DHT22;5860;52.018;8.536;2023-07-16T02:12:38;19.10;99.90
11609;DHT22;5860;52.018;8.536;2023-07-16T02:15:06;19.10;99.90
11609;DHT22;5860;52.018;8.536;2023-07-16T02:17:33;19.00;99.90
11609;DHT22;5860;52.018;8.536;2023-07-16T02:20:00;19.00;99.90
11609;DHT22;5860;52.018;8.536;2023-07-16T02:22:27;19.00;99.90
11609;DHT22;5860;52.018;8.536;2023-07-16T02:24:54;19.00;99.90
11609;DHT22;5860;52.018;8.536;2023-07-16T02:27:20;19.00;99.90
11609;DHT22;5860;52.018;8.536;2023-07-16T02:29:47;19.00;99.90
11609;DHT22;5860;52.018;8.536;2023-07-16T02:32:14;19.00;99.90
11609;DHT22;5860;52.018;8.536;2023-07-16T02:34:41;19.00;99.90
11609;DHT22;5860;52.018;8.536;2023-07-16T02:37:08;19.00;99.90
11609;DHT22;5860;52.018;8.536;2023-07-16T02:39:35;18.90;99.90
11609;DHT22;5860;52.018;8.536;2023-07-16T02:42:02;18.90;99.90
11609;DHT22;5860;52.018;8.536;2023-07-16T02:44:29;18.80;99.90
11609;DHT22;5860;52.018;8.536;2023-07-16T02:46:56;18.70;99.90
11609;DHT22;5860;52.018;8.536;2023-07-16T02:49:23;18.70;99.90
11609;DHT22;5860;52.018;8.536;2023-07-16T02:51:50;18.60;99.90
11609;DHT22;5860;52.018;8.536;2023-07-16T02:54:17;18.60;99.90
11609;DHT22;5860;52.018;8.536;2023-07-16T02:56:44;18.60;99.90
11609;DHT22;5860;52.018;8.536;2023-07-16T03:01:38;18.50;99.90
11609;DHT22;5860;52.018;8.536;2023-07-16T03:04:05;18.50;99.90
11609;DHT22;5860;52.018;8.536;2023-07-16T03:06:32;18.40;99.90
11609;DHT22;5860;52.018;8.536;2023-07-16T03:08:59;18.40;99.90
11609;DHT22;5860;52.018;8.536;2023-07-16T03:11:26;18.30;99.90
11609;DHT22;5860;52.018;8.536;2023-07-16T03:13:53;18.20;99.90
11609;DHT22;5860;52.018;8.536;2023-07-16T03:16:20;18.20;99.90
11609;DHT22;5860;52.018;8.536;2023-07-16T03:18:46;18.10;99.90
11609;DHT22;5860;52.018;8.536;2023-07-16T03:21:14;18.10;99.90
11609;DHT22;5860;52.018;8.536;2023-07-16T03:23:41;18.10;99.90
11609;DHT22;5860;52.018;8.536;2023-07-16T03:26:07;18.10;99.90
11609;DHT22;5860;52.018;8.536;2023-07-16T03:28:34;18.00;99.90
11609;DHT22;5860;52.018;8.536;2023-07-16T03:31:01;18.00;99.90
11609;DHT22;5860;52.018;8.536;2023-07-16T03:33:28;18.00;99.90
11609;DHT22;5860;52.018;8.536;2023-07-16T03:35:55;18.00;99.90
11609;DHT22;5860;52.018;8.536;2023-07-16T03:38:22;18.00;99.90
11609;DHT22;5860;52.018;8.536;2023-07-16T03:40:49;18.00;99.90
11609;DHT22;5860;52.018;8.536;2023-07-16T03:43:17;18.00;99.90
11609;DHT22;5860;52.018;8.536;2023-07-16T03:45:44;18.00;99.90
11609;DHT22;5860;52.018;8.536;2023-07-16T03:48:11;18.00;99.90
11609;DHT22;5860;52.018;8.536;2023-07-16T03:50:42;18.00;99.90
11609;DHT22;5860;52.018;8.536;2023-07-16T03:53:09;18.00;99.90
11609;DHT22;5860;52.018;8.536;2023-07-16T03:55:35;18.00;99.90
11609;DHT22;5860;52.018;8.536;2023-07-16T03:58:03;18.00;99.90
11609;DHT22;5860;52.018;8.536;2023-07-16T04:00:30;18.00;99.90
11609;DHT22;5860;52.018;8.536;2023-07-16T04:02:56;18.00;99.90
11609;DHT22;5860;52.018;8.536;2023-07-16T04:05:23;18.10;99.90
11609;DHT22;5860;52.018;8.536;2023-07-16T04:07:51;18.10;99.90
11609;DHT22;5860;52.018;8.536;2023-07-16T04:10:18;18.50;99.90
11609;DHT22;5860;52.018;8.536;2023-07-16T04:12:45;19.10;99.90
11609;DHT22;5860;52.018;8.536;2023-07-16T04:15:12;20.00;99.90
11609;DHT22;5860;52.018;8.536;2023-07-16T04:17:39;20.80;99.90
11609;DHT22;5860;52.018;8.536;2023-07-16T04:20:07;20.80;99.90
11609;DHT22;5860;52.018;8.536;2023-07-16T04:22:34;21.20;99.90
11609;DHT22;5860;52.018;8.536;2023-07-16T04:25:02;21.90;99.90
11609;DHT22;5860;52.018;8.536;2023-07-16T04:27:29;22.30;99.90
11609;DHT22;5860;52.018;8.536;2023-07-16T04:29:56;22.20;99.90
11609;DHT22;5860;52.018;8.536;2023-07-16T04:32:23;22.10;99.90
11609;DHT22;5860;52.018;8.536;2023-07-16T04:34:50;21.10;99.90
11609;DHT22;5860;52.018;8.536;2023-07-16T04:37:16;21.00;99.90
11609;DHT22;5860;52.018;8.536;2023-07-16T04:39:43;22.40;99.90
11609;DHT22;5860;52.018;8.536;2023-07-16T04:42:10;23.40;99.90
11609;DHT22;5860;52.018;8.536;2023-07-16T04:44:37;24.50;99.90
11609;DHT22;5860;52.018;8.536;2023-07-16T04:47:04;23.70;99.90
11609;DHT22;5860;52.018;8.536;2023-07-16T04:49:33;23.60;99.90
11609;DHT22;5860;52.018;8.536;2023-07-16T04:52:00;24.70;99.90
11609;DHT22;5860;52.018;8.536;2023-07-16T04:54:27;24.40;99.90
11609;DHT22;5860;52.018;8.536;2023-07-16T04:56:54;24.80;99.90
11609;DHT22;5860;52.018;8.536;2023-07-16T04:59:20;25.30;99.90
11609;DHT22;5860;52.018;8.536;2023-07-16T05:01:47;26.60;99.90
11609;DHT22;5860;52.018;8.536;2023-07-16T05:04:14;26.50;99.90
11609;DHT22;5860;52.018;8.536;2023-07-16T05:06:41;26.20;99.90
11609;DHT22;5860;52.018;8.536;2023-07-16T05:09:08;25.50;99.90
11609;DHT22;5860;52.018;8.536;2023-07-16T05:11:35;25.60;99.90
11609;DHT22;5860;52.018;8.536;2023-07-16T05:14:04;26.20;99.90
11609;DHT22;5860;52.018;8.536;2023-07-16T05:16:31;25.70;99.90
11609;DHT22;5860;52.018;8.536;2023-07-16T05:18:58;26.90;99.90
11609;DHT22;5860;52.018;8.536;2023-07-16T05:21:24;26.80;99.90
11609;DHT22;5860;52.018;8.536;2023-07-16T05:23:51;27.30;99.90
11609;DHT22;5860;52.018;8.536;2023-07-16T05:26:18;28.60;99.90
11609;DHT22;5860;52.018;8.536;2023-07-16T05:28:45;27.30;99.90
11609;DHT22;5860;52.018;8.536;2023-07-16T05:31:12;26.60;99.90
11609;DHT22;5860;52.018;8.536;2023-07-16T05:33:39;26.10;99.90
11609;DHT22;5860;52.018;8.536;2023-07-16T05:36:06;27.60;99.90
11609;DHT22;5860;52.018;8.536;2023-07-16T05:38:34;25.40;99.90
11609;DHT22;5860;52.018;8.536;2023-07-16T05:41:02;26.20;99.90
11609;DHT22;5860;52.018;8.536;2023-07-16T05:43:29;28.00;99.90
11609;DHT22;5860;52.018;8.536;2023-07-16T05:45:56;27.20;99.90
11609;DHT22;5860;52.018;8.536;2023-07-16T05:48:24;28.50;99.90
11609;DHT22;5860;52.018;8.536;2023-07-16T05:50:51;28.60;99.90
11609;DHT22;5860;52.018;8.536;2023-07-16T05:53:18;25.90;99.90
11609;DHT22;5860;52.018;8.536;2023-07-16T05:55:45;26.60;99.90
11609;DHT22;5860;52.018;8.536;2023-07-16T05:58:12;27.80;99.90
11609;DHT22;5860;52.018;8.536;2023-07-16T06:00:38;26.00;99.90
11609;DHT22;5860;52.018;8.536;2023-07-16T06:03:06;26.00;99.90
11609;DHT22;5860;52.018;8.536;2023-07-16T06:05:33;25.70;99.90
11609;DHT22;5860;52.018;8.536;2023-07-16T06:08:01;26.40;99.90
11609;DHT22;5860;52.018;8.536;2023-07-16T06:10:28;27.90;99.90
11609;DHT22;5860;52.018;8.536;2023-07-16T06:12:55;27.80;99.90
11609;DHT22;5860;52.018;8.536;2023-07-16T06:15:22;27.50;99.90
11609;DHT22;5860;52.018;8.536;2023-07-16T06:17:49;27.70;99.90
11609;DHT22;5860;52.018;8.536;2023-07-16T06:20:16;28.40;99.90
11609;DHT22;5860;52.018;8.536;2023-07-16T06:22:43;28.00;99.90
11609;DHT22;5860;52.018;8.536;2023-07-16T06:25:10;28.20;99.90
11609;DHT22;5860;52.018;8.536;2023-07-16T06:27:37;26.50;99.90
11609;DHT22;5860;52.018;8.536;2023-07-16T06:30:05;26.70;99.90
11609;DHT22;5860;52.018;8.536;2023-07-16T06:32:32;27.70;99.90
11609;DHT22;5860;52.018;8.536;2023-07-16T06:34:59;26.60;99.90
11609;DHT22;5860;52.018;8.536;2023-07-16T06:37:26;26.40;99.90
11609;DHT22;5860;52.018;8.536;2023-07-16T06:39:53;25.90;99.90
11609;DHT22;5860;52.018;8.536;2023-07-16T06:42:20;26.50;99.90
11609;DHT22;5860;52.018;8.536;2023-07-16T06:44:47;25.10;99.90
11609;DHT22;5860;52.018;8.536;2023-07-16T06:47:13;25.20;99.90
11609;DHT22;5860;52.018;8.536;2023-07-16T06:49:41;25.10;99.90
11609;DHT22;5860;52.018;8.536;2023-07-16T06:52:08;25.50;99.90
11609;DHT22;5860;52.018;8.536;2023-07-16T06:54:35;26.40;99.90
11609;DHT22;5860;52.018;8.536;2023-07-16T06:57:02;26.80;99.90
11609;DHT22;5860;52.018;8.536;2023-07-16T06:59:29;26.60;99.90
11609;DHT22;5860;52.018;8.536;2023-07-16T07:01:56;26.10;99.90
11609;DHT22;5860;52.018;8.536;2023-07-16T07:04:23;25.10;99.90
11609;DHT22;5860;52.018;8.536;2023-07-16T07:06:50;24.30;99.90
11609;DHT22;5860;52.018;8.536;2023-07-16T07:09:17;24.10;99.90
11609;DHT22;5860;52.018;8.536;2023-07-16T07:11:44;22.00;99.90
11609;DHT22;5860;52.018;8.536;2023-07-16T07:14:11;21.60;99.90
11609;DHT22;5860;52.018;8.536;2023-07-16T07:16:38;21.70;99.90
11609;DHT22;5860;52.018;8.536;2023-07-16T07:19:07;22.20;99.90
11609;DHT22;5860;52.018;8.536;2023-07-16T07:21:34;23.70;99.90
11609;DHT22;5860;52.018;8.536;2023-07-16T07:24:01;24.60;99.90
11609;DHT22;5860;52.018;8.536;2023-07-16T07:26:28;26.50;99.90
11609;DHT22;5860;52.018;8.536;2023-07-16T07:28:55;25.90;99.90
11609;DHT22;5860;52.018;8.536;2023-07-16T07:31:22;24.80;99.90
11609;DHT22;5860;52.018;8.536;2023-07-16T07:33:49;25.30;99.90
11609;DHT22;5860;52.018;8.536;2023-07-16T07:36:16;23.10;99.90
11609;DHT22;5860;52.018;8.536;2023-07-16T07:38:43;22.80;99.90
11609;DHT22;5860;52.018;8.536;2023-07-16T07:41:10;21.90;99.90
11609;DHT22;5860;52.018;8.536;2023-07-16T07:43:37;21.50;99.90
11609;DHT22;5860;52.018;8.536;2023-07-16T07:46:04;23.30;99.90
11609;DHT22;5860;52.018;8.536;2023-07-16T07:48:31;25.20;99.90
11609;DHT22;5860;52.018;8.536;2023-07-16T07:50:57;26.00;99.90
11609;DHT22;5860;52.018;8.536;2023-07-16T07:53:24;25.80;99.90
11609;DHT22;5860;52.018;8.536;2023-07-16T07:55:51;26.30;99.90
11609;DHT22;5860;52.018;8.536;2023-07-16T07:58:18;25.60;99.90
11609;DHT22;5860;52.018;8.536;2023-07-16T08:00:48;24.50;99.90
11609;DHT22;5860;52.018;8.536;2023-07-16T08:03:17;24.10;99.90
11609;DHT22;5860;52.018;8.536;2023-07-16T08:08:51;23.90;99.90
11609;DHT22;5860;52.018;8.536;2023-07-16T08:11:20;22.90;99.90
11609;DHT22;5860;52.018;8.536;2023-07-16T08:13:47;23.60;99.90
11609;DHT22;5860;52.018;8.536;2023-07-16T08:16:16;23.20;99.90
11609;DHT22;5860;52.018;8.536;2023-07-16T08:18:43;23.30;99.90
11609;DHT22;5860;52.018;8.536;2023-07-16T08:21:10;24.30;99.90
11609;DHT22;5860;52.018;8.536;2023-07-16T08:23:42;24.60;99.90
11609;DHT22;5860;52.018;8.536;2023-07-16T08:26:09;24.30;99.90
11609;DHT22;5860;52.018;8.536;2023-07-16T08:28:36;24.80;99.10
11609;DHT22;5860;52.018;8.536;2023-07-16T08:31:03;25.10;98.40
11609;DHT22;5860;52.018;8.536;2023-07-16T08:33:29;23.40;99.90
11609;DHT22;5860;52.018;8.536;2023-07-16T08:35:56;23.00;99.90
11609;DHT22;5860;52.018;8.536;2023-07-16T08:38:23;23.20;99.90
11609;DHT22;5860;52.018;8.536;2023-07-16T08:40:50;22.10;99.90
11609;DHT22;5860;52.018;8.536;2023-07-16T08:43:17;21.70;99.90
11609;DHT22;5860;52.018;8.536;2023-07-16T08:45:45;22.20;99.90
11609;DHT22;5860;52.018;8.536;2023-07-16T08:48:13;22.60;99.90
11609;DHT22;5860;52.018;8.536;2023-07-16T08:50:42;22.70;99.90
11609;DHT22;5860;52.018;8.536;2023-07-16T08:53:09;22.20;99.90
11609;DHT22;5860;52.018;8.536;2023-07-16T08:55:37;22.20;99.90
11609;DHT22;5860;52.018;8.536;2023-07-16T08:58:05;22.90;99.90
11609;DHT22;5860;52.018;8.536;2023-07-16T09:00:32;23.50;99.90
11609;DHT22;5860;52.018;8.536;2023-07-16T09:03:00;23.30;99.90
11609;DHT22;5860;52.018;8.536;2023-07-16T09:05:28;23.80;99.90
11609;DHT22;5860;52.018;8.536;2023-07-16T09:08:06;24.40;99.30
11609;DHT22;5860;52.018;8.536;2023-07-16T09:10:33;24.60;98.30
11609;DHT22;5860;52.018;8.536;2023-07-16T09:13:01;24.60;98.20
11609;DHT22;5860;52.018;8.536;2023-07-16T09:15:29;25.50;98.20
11609;DHT22;5860;52.018;8.536;2023-07-16T09:17:57;24.60;97.90
11609;DHT22;5860;52.018;8.536;2023-07-16T09:20:24;25.10;97.80
11609;DHT22;5860;52.018;8.536;2023-07-16T09:22:54;24.40;97.30
11609;DHT22;5860;52.018;8.536;2023-07-16T09:25:28;23.20;98.50
11609;DHT22;5860;52.018;8.536;2023-07-16T09:27:58;23.40;99.10
11609;DHT22;5860;52.018;8.536;2023-07-16T09:30:31;24.30;98.40
11609;DHT22;5860;52.018;8.536;2023-07-16T09:33:14;24.60;97.50
11609;DHT22;5860;52.018;8.536;2023-07-16T09:35:41;25.40;97.00
11609;DHT22;5860;52.018;8.536;2023-07-16T09:38:09;24.80;97.10
11609;DHT22;5860;52.018;8.536;2023-07-16T09:40:40;25.00;96.90
11609;DHT22;5860;52.018;8.536;2023-07-16T09:43:11;24.10;96.60
11609;DHT22;5860;52.018;8.536;2023-07-16T09:45:39;24.60;97.30
11609;DHT22;5860;52.018;8.536;2023-07-16T09:48:10;25.70;96.30
11609;DHT22;5860;52.018;8.536;2023-07-16T09:50:43;24.90;95.30
11609;DHT22;5860;52.018;8.536;2023-07-16T09:53:13;24.60;96.10
11609;DHT22;5860;52.018;8.536;2023-07-16T09:55:42;25.10;96.00
11609;DHT22;5860;52.018;8.536;2023-07-16T09:58:10;24.90;94.90
11609;DHT22;5860;52.018;8.536;2023-07-16T10:00:39;25.20;94.70
11609;DHT22;5860;52.018;8.536;2023-07-16T10:03:07;25.70;93.80
11609;DHT22;5860;52.018;8.536;2023-07-16T10:05:38;25.70;93.80
11609;DHT22;5860;52.018;8.536;2023-07-16T10:08:14;25.60;94.20
11609;DHT22;5860;52.018;8.536;2023-07-16T10:10:44;25.70;93.70
11609;DHT22;5860;52.018;8.536;2023-07-16T10:13:13;25.20;93.80
11609;DHT22;5860;52.018;8.536;2023-07-16T10:16:00;24.40;94.00
11609;DHT22;5860;52.018;8.536;2023-07-16T10:18:32;24.20;94.70
11609;DHT22;5860;52.018;8.536;2023-07-16T10:21:09;24.10;94.80
11609;DHT22;5860;52.018;8.536;2023-07-16T10:23:40;23.90;94.70
11609;DHT22;5860;52.018;8.536;2023-07-16T10:26:09;24.10;94.60
11609;DHT22;5860;52.018;8.536;2023-07-16T10:28:37;24.60;93.70
11609;DHT22;5860;52.018;8.536;2023-07-16T10:31:05;24.80;93.30
11609;DHT22;5860;52.018;8.536;2023-07-16T10:33:34;25.30;92.50
11609;DHT22;5860;52.018;8.536;2023-07-16T10:36:04;25.00;93.10
11609;DHT22;5860;52.018;8.536;2023-07-16T10:38:40;24.40;93.40
11609;DHT22;5860;52.018;8.536;2023-07-16T10:41:09;23.90;93.40
11609;DHT22;5860;52.018;8.536;2023-07-16T10:43:36;23.80;93.60
11609;DHT22;5860;52.018;8.536;2023-07-16T10:46:06;24.10;94.10
11609;DHT22;5860;52.018;8.536;2023-07-16T10:48:33;24.50;93.90
11609;DHT22;5860;52.018;8.536;2023-07-16T10:51:00;24.90;93.40
11609;DHT22;5860;52.018;8.536;2023-07-16T10:53:27;24.10;93.50
11609;DHT22;5860;52.018;8.536;2023-07-16T10:55:54;24.60;93.30
11609;DHT22;5860;52.018;8.536;2023-07-16T10:58:21;24.60;93.60
11609;DHT22;5860;52.018;8.536;2023-07-16T11:00:48;24.20;93.50
11609;DHT22;5860;52.018;8.536;2023-07-16T11:03:15;24.70;93.10
11609;DHT22;5860;52.018;8.536;2023-07-16T11:05:46;24.50;92.90
11609;DHT22;5860;52.018;8.536;2023-07-16T11:08:24;24.30;92.20
11609;DHT22;5860;52.018;8.536;2023-07-16T11:10:56;24.30;93.10
11609;DHT22;5860;52.018;8.536;2023-07-16T11:13:31;24.70;92.90
11609;DHT22;5860;52.018;8.536;2023-07-16T11:16:08;24.60;92.50
11609;DHT22;5860;52.018;8.536;2023-07-16T11:18:36;24.30;91.80
11609;DHT22;5860;52.018;8.536;2023-07-16T11:21:03;24.50;92.60
11609;DHT22;5860;52.018;8.536;2023-07-16T11:23:34;24.30;92.90
11609;DHT22;5860;52.018;8.536;2023-07-16T11:26:02;23.90;93.00
11609;DHT22;5860;52.018;8.536;2023-07-16T11:28:37;24.30;93.20
11609;DHT22;5860;52.018;8.536;2023-07-16T11:31:15;24.60;92.90
11609;DHT22;5860;52.018;8.536;2023-07-16T11:33:45;24.70;92.80
11609;DHT22;5860;52.018;8.536;2023-07-16T11:36:12;24.60;91.60
11609;DHT22;5860;52.018;8.536;2023-07-16T11:38:40;24.30;92.10
11609;DHT22;5860;52.018;8.536;2023-07-16T11:41:07;24.50;92.80
11609;DHT22;5860;52.018;8.536;2023-07-16T11:43:35;24.60;92.80
11609;DHT22;5860;52.018;8.536;2023-07-16T11:46:05;24.70;92.90
11609;DHT22;5860;52.018;8.536;2023-07-16T11:48:32;24.40;91.60
11609;DHT22;5860;52.018;8.536;2023-07-16T11:50:58;24.90;91.80
11609;DHT22;5860;52.018;8.536;2023-07-16T11:53:25;25.20;92.00
11609;DHT22;5860;52.018;8.536;2023-07-16T11:55:53;24.60;92.00
11609;DHT22;5860;52.018;8.536;2023-07-16T11:58:20;24.30;92.00
11609;DHT22;5860;52.018;8.536;2023-07-16T12:00:46;24.30;91.70
11609;DHT22;5860;52.018;8.536;2023-07-16T12:03:14;23.80;92.00
11609;DHT22;5860;52.018;8.536;2023-07-16T12:05:41;24.70;91.90
11609;DHT22;5860;52.018;8.536;2023-07-16T12:08:19;24.80;91.80
11609;DHT22;5860;52.018;8.536;2023-07-16T12:10:46;24.40;91.80
11609;DHT22;5860;52.018;8.536;2023-07-16T12:13:13;24.20;91.60
11609;DHT22;5860;52.018;8.536;2023-07-16T12:15:40;24.20;91.90
11609;DHT22;5860;52.018;8.536;2023-07-16T12:18:07;24.50;91.70
11609;DHT22;5860;52.018;8.536;2023-07-16T12:20:35;24.70;91.60
11609;DHT22;5860;52.018;8.536;2023-07-16T12:23:03;24.30;91.60
11609;DHT22;5860;52.018;8.536;2023-07-16T12:25:30;24.30;91.90
11609;DHT22;5860;52.018;8.536;2023-07-16T12:27:57;24.30;92.10
11609;DHT22;5860;52.018;8.536;2023-07-16T12:30:25;24.30;92.00
11609;DHT22;5860;52.018;8.536;2023-07-16T12:32:52;24.40;92.10
11609;DHT22;5860;52.018;8.536;2023-07-16T12:35:19;24.50;91.90
11609;DHT22;5860;52.018;8.536;2023-07-16T12:37:46;24.60;91.60
11609;DHT22;5860;52.018;8.536;2023-07-16T12:40:13;24.60;91.50
11609;DHT22;5860;52.018;8.536;2023-07-16T12:42:40;24.70;91.60
11609;DHT22;5860;52.018;8.536;2023-07-16T12:45:07;24.70;90.90
11609;DHT22;5860;52.018;8.536;2023-07-16T12:47:34;24.70;91.40
11609;DHT22;5860;52.018;8.536;2023-07-16T12:50:02;25.10;91.60
11609;DHT22;5860;52.018;8.536;2023-07-16T12:52:29;24.90;91.10
11609;DHT22;5860;52.018;8.536;2023-07-16T12:54:56;24.60;91.60
11609;DHT22;5860;52.018;8.536;2023-07-16T12:57:24;24.40;91.00
11609;DHT22;5860;52.018;8.536;2023-07-16T12:59:51;24.50;91.40
11609;DHT22;5860;52.018;8.536;2023-07-16T13:02:18;24.50;90.70
11609;DHT22;5860;52.018;8.536;2023-07-16T13:04:45;24.40;90.40
11609;DHT22;5860;52.018;8.536;2023-07-16T13:07:13;24.80;90.30
11609;DHT22;5860;52.018;8.536;2023-07-16T13:09:40;25.00;90.40
11609;DHT22;5860;52.018;8.536;2023-07-16T13:12:07;25.10;90.20
11609;DHT22;5860;52.018;8.536;2023-07-16T13:14:34;24.80;88.20
11609;DHT22;5860;52.018;8.536;2023-07-16T13:17:01;24.50;87.90
11609;DHT22;5860;52.018;8.536;2023-07-16T13:19:31;24.90;88.70
11609;DHT22;5860;52.018;8.536;2023-07-16T13:21:58;25.00;89.40
11609;DHT22;5860;52.018;8.536;2023-07-16T13:24:25;24.80;90.30
11609;DHT22;5860;52.018;8.536;2023-07-16T13:26:52;24.60;89.10
11609;DHT22;5860;52.018;8.536;2023-07-16T13:29:19;24.90;90.00
11609;DHT22;5860;52.018;8.536;2023-07-16T13:31:46;24.80;90.00
11609;DHT22;5860;52.018;8.536;2023-07-16T13:34:13;24.90;90.70
11609;DHT22;5860;52.018;8.536;2023-07-16T13:36:40;24.90;90.60
11609;DHT22;5860;52.018;8.536;2023-07-16T13:39:07;25.10;91.10
11609;DHT22;5860;52.018;8.536;2023-07-16T13:41:34;24.90;91.10
11609;DHT22;5860;52.018;8.536;2023-07-16T13:44:01;25.00;90.90
11609;DHT22;5860;52.018;8.536;2023-07-16T13:46:28;24.60;88.70
11609;DHT22;5860;52.018;8.536;2023-07-16T13:48:55;24.50;90.20
11609;DHT22;5860;52.018;8.536;2023-07-16T13:51:25;24.50;91.30
11609;DHT22;5860;52.018;8.536;2023-07-16T13:53:52;24.40;91.70
11609;DHT22;5860;52.018;8.536;2023-07-16T13:56:20;24.70;91.90
11609;DHT22;5860;52.018;8.536;2023-07-16T13:58:47;24.90;91.90
11609;DHT22;5860;52.018;8.536;2023-07-16T14:01:14;25.10;91.40
11609;DHT22;5860;52.018;8.536;2023-07-16T14:03:41;25.10;90.90
11609;DHT22;5860;52.018;8.536;2023-07-16T14:06:08;24.70;90.70
11609;DHT22;5860;52.018;8.536;2023-07-16T14:08:35;24.80;91.40
11609;DHT22;5860;52.018;8.536;2023-07-16T14:11:03;24.80;91.20
11609;DHT22;5860;52.018;8.536;2023-07-16T14:13:30;24.80;91.50
11609;DHT22;5860;52.018;8.536;2023-07-16T14:15:57;25.00;92.30
11609;DHT22;5860;52.018;8.536;2023-07-16T14:18:24;24.80;91.50
11609;DHT22;5860;52.018;8.536;2023-07-16T14:20:51;24.30;92.30
11609;DHT22;5860;52.018;8.536;2023-07-16T14:23:18;24.60;92.70
11609;DHT22;5860;52.018;8.536;2023-07-16T14:25:45;24.80;92.00
11609;DHT22;5860;52.018;8.536;2023-07-16T14:28:12;24.80;91.90
11609;DHT22;5860;52.018;8.536;2023-07-16T14:30:40;24.70;92.50
11609;DHT22;5860;52.018;8.536;2023-07-16T14:33:07;24.50;92.30
11609;DHT22;5860;52.018;8.536;2023-07-16T14:35:34;24.50;92.20
11609;DHT22;5860;52.018;8.536;2023-07-16T14:38:04;24.50;91.90
11609;DHT22;5860;52.018;8.536;2023-07-16T14:40:32;24.50;92.70
11609;DHT22;5860;52.018;8.536;2023-07-16T14:42:59;24.90;92.40
11609;DHT22;5860;52.018;8.536;2023-07-16T14:45:27;25.00;92.60
11609;DHT22;5860;52.018;8.536;2023-07-16T14:47:54;24.90;92.10
11609;DHT22;5860;52.018;8.536;2023-07-16T14:50:21;25.10;92.00
11609;DHT22;5860;52.018;8.536;2023-07-16T14:52:48;25.10;91.90
11609;DHT22;5860;52.018;8.536;2023-07-16T14:55:15;24.80;91.90
11609;DHT22;5860;52.018;8.536;2023-07-16T14:57:42;24.80;91.30
11609;DHT22;5860;52.018;8.536;2023-07-16T15:00:11;24.70;91.00
11609;DHT22;5860;52.018;8.536;2023-07-16T15:02:38;24.30;91.40
11609;DHT22;5860;52.018;8.536;2023-07-16T15:05:06;24.30;91.70
11609;DHT22;5860;52.018;8.536;2023-07-16T15:07:34;24.50;91.80
11609;DHT22;5860;52.018;8.536;2023-07-16T15:10:05;24.60;91.80
11609;DHT22;5860;52.018;8.536;2023-07-16T15:12:32;24.60;91.80
11609;DHT22;5860;52.018;8.536;2023-07-16T15:14:59;25.00;91.70
11609;DHT22;5860;52.018;8.536;2023-07-16T15:17:27;24.90;91.70
11609;DHT22;5860;52.018;8.536;2023-07-16T15:19:54;24.80;91.80
11609;DHT22;5860;52.018;8.536;2023-07-16T15:22:21;25.00;91.70
11609;DHT22;5860;52.018;8.536;2023-07-16T15:24:52;24.80;91.50
11609;DHT22;5860;52.018;8.536;2023-07-16T15:27:19;24.90;91.10
11609;DHT22;5860;52.018;8.536;2023-07-16T15:29:45;24.70;91.10
11609;DHT22;5860;52.018;8.536;2023-07-16T15:32:14;24.80;90.80
11609;DHT22;5860;52.018;8.536;2023-07-16T15:34:40;24.90;91.40
11609;DHT22;5860;52.018;8.536;2023-07-16T15:37:08;24.90;91.70
11609;DHT22;5860;52.018;8.536;2023-07-16T15:39:36;24.80;91.20
11609;DHT22;5860;52.018;8.536;2023-07-16T15:42:03;24.60;92.10
11609;DHT22;5860;52.018;8.536;2023-07-16T15:44:30;24.30;92.80
11609;DHT22;5860;52.018;8.536;2023-07-16T15:46:57;24.40;92.60
11609;DHT22;5860;52.018;8.536;2023-07-16T15:49:27;24.60;92.30
11609;DHT22;5860;52.018;8.536;2023-07-16T15:51:53;24.80;92.40
11609;DHT22;5860;52.018;8.536;2023-07-16T15:54:20;24.60;92.20
11609;DHT22;5860;52.018;8.536;2023-07-16T15:56:47;24.30;92.60
11609;DHT22;5860;52.018;8.536;2023-07-16T15:59:14;24.00;92.10